Bethany, Ohio
Current Conditions -  °F | °C
As of 5:55 PM on Thursday 23 Oct 2014 (Local Time) from KMWO Reporting Station
Clear Clear  
Wind Chill: 60°   Ceiling: Unl
Heat Index: 60°   Visibility: 10mi
Dew Point: 42°   Wind: 3mph
Humidity: 52%   Direction: 70°ENE
Pressure: 30.15"   Gusts: NA
Location:  39.5538°N, 84.4567°W
Report Text: KMWO 232155Z AUTO 07003KT 10SM CLR 15/06 A3015 RMK AO2 T01530056
Loading
Personal Weather Stations






























Interactive Weather Map
Tropical Storm Tracking
New forecast layout! Learn more

10-Day Weather Forecast

Advertisements
Track Severe Weather on mobile